This is the latest recevied weather packets stored in our database for station/object WX6HNX-2. If no packets are shown the sender has not sent any weather packets the latest 10 day(s).
| Time | Temp. | Humidity | Pressure | Rain* | Wind** | Luminosity | Snow |
|---|---|---|---|---|---|---|---|
| 1777749981 | 26.11° C | 44% | 1013 hPa | 0 mm | - | - | - |
| 1777749260 | 25.56° C | 47% | 1013.1 hPa | 0 mm | - | - | - |
| 1777749020 | 25.56° C | 45% | 1013.1 hPa | 0 mm | - | - | - |
| 1777747821 | 25° C | 48% | 1013.3 hPa | 0 mm | - | - | - |
| 1777746621 | 25° C | 48% | 1013.5 hPa | 0 mm | - | - | - |
| 1777746380 | 24.44° C | 48% | 1013.5 hPa | 0 mm | - | - | - |
| 1777745420 | 25° C | 48% | 1013.5 hPa | 0 mm | - | - | - |
| 1777745180 | 24.44° C | 50% | 1013.5 hPa | 0 mm | - | - | - |
| 1777744941 | 24.44° C | 51% | 1013.4 hPa | 0 mm | - | - | - |
| 1777744136 | 24.44° C | 48% | 1013.4 hPa | 0 mm | - | - | - |
| 1777743895 | 24.44° C | 50% | 1013.4 hPa | 0 mm | - | - | - |
| 1777743415 | 25° C | 50% | 1013.4 hPa | 0 mm | - | - | - |
| 1777742935 | 25° C | 49% | 1013.3 hPa | 0 mm | - | - | - |
| 1777742065 | 24.44° C | 48% | 1013.3 hPa | 0 mm | - | - | - |
| 1777741825 | 23.89° C | 50% | 1013.3 hPa | 0 mm | - | - | - |
| 1777741585 | 23.89° C | 51% | 1013.3 hPa | 0 mm | - | - | - |
| 1777740865 | 23.33° C | 51% | 1013.4 hPa | 0 mm | - | - | - |
| 1777739905 | 22.78° C | 56% | 1013.4 hPa | 0 mm | - | - | - |
| 1777739665 | 22.78° C | 52% | 1013.4 hPa | 0 mm | - | - | - |
| 1777739185 | 22.22° C | 58% | 1013.4 hPa | 0 mm | - | - | - |
| 1777738149 | 20.56° C | 66% | 1013.3 hPa | 0 mm | - | - | - |
| 1777737910 | 20° C | 64% | 1013.3 hPa | 0 mm | - | - | - |
| 1777736710 | 18.33° C | 68% | 1013.1 hPa | 0 mm | - | - | - |
| 1777736469 | 18.33° C | 71% | 1013.1 hPa | 0 mm | - | - | - |
| 1777736229 | 17.78° C | 72% | 1013.1 hPa | 0 mm | - | - | - |
* Rain latest hour (hover to see other rain measurements)
** Current wind speed in m/s (hover to see current wind gust speed)